Strona główna
METAR-TAF:

METAR-TAF

Lotnisko :

Lotnisko Le Bourget

Paryż, Francja

Szerokość geograficzna: 48-58N, Długość geograficzna: 002-27E, wysokość: 66 m

Aktualna obserwacja pogody

Raport powstał 32 minut temu, godzina 12:00 UTC
Wiatr 5 kt od zachód, zmienny między południowo-południowy zachód i północ
Temperatura 27°C
Wilgotność 32%
Ciśnienie 1014 hPa
Widzialność 10 km lub więcej
Brak chmur poniżej 1500 m i brak chmur cumulonimbus

METAR: LFPB 171200Z AUTO 28005KT 210V010 CAVOK 27/09 Q1014 NOSIG

czas: 14:32 (12:32 UTC)

Prognoza

Raport powstał 1 godzina i 32 minut temu, godzina 11:00 UTC
Prognoza ważna od 17 godzina 12 UTC do 18 godzina 12 UTC
Wiatr 3 kt z kierunków zmiennych
Widzialność 10 km lub więcej
Brak chmur poniżej 1500 m i brak chmur cumulonimbus
Stopniowe zmiany
od 17 godzina 18 UTC do 17 godzina 20 UTC
Wiatr 10 kt od północno-północny zachód

TAF: LFPB 171100Z 1712/1812 VRB03KT CAVOK BECMG 1718/1720 34010KT

Obserwacja i prognoza pogody dla ponad 4000 lotnisk (raport METAR i TAF).

Dostępne stacje oznaczono żółtymi i czerwonymi punktami na mapie.

Najedź kursorem aby zobaczyć nazwę stacji.

Kliknij aby zobaczyć obserwacje i prognozy pogody.

Aby zmienić mapę: kliknij na zielony przycisk z czarnym krzyżykiem, aby powiększyć; na zielony przycisk z myślnikiem, aby pomniejszyć; na zielone strzałki, aby przejść do map sąsiednich.


METAR-TAF: